• Join FlightAware (Why Join?)
  • Login
  • US Flag 
07:49PM EST


 

Airport Tracker/Info


-or-


 

Live Flight TrackerFlight Track Log ✈ TAM3196 ✈ 18-May-2013 ✈ SBGL / GIG - SBVT / VIX

Flight Track Log - Related Links

Times and Time Zones

All times are in EDT time to prevent confusion due to time zone crossing. See the TAM3196 flight status page for this flight to view local times or setup timezone preferences in your user account.

Time Position Orientation Groundspeed Altitude Reporting Facility
EDT Latitude Longitude Course Direction KTS MPH feet Rate Location/Type
04:23PM -22.2118 -42.5364 48° Northeast  Level Estimated
04:24PM -22.1658 -42.4823 47° Northeast  Level Estimated
04:25PM -22.1197 -42.4282 47° Northeast  Level Estimated
04:26PM -22.0736 -42.3741 47° Northeast  Level Estimated
04:27PM -22.0275 -42.3200 47° Northeast  Level Estimated
04:28PM -21.9814 -42.2660 47° Northeast  Level Estimated
04:29PM -21.9352 -42.2121 47° Northeast  Level Estimated
04:30PM -21.8890 -42.1581 47° Northeast  Level Estimated
04:31PM -21.8429 -42.1042 47° Northeast  Level Estimated
04:32PM -21.7967 -42.0503 47° Northeast  Level Estimated
04:33PM -21.7505 -41.9965 47° Northeast  Level Estimated
04:34PM -21.7042 -41.9427 47° Northeast  Level Estimated
04:35PM -21.6580 -41.8889 47° Northeast  Level Estimated
04:36PM -21.6117 -41.8352 47° Northeast  Level Estimated
04:37PM -21.5654 -41.7815 47° Northeast  Level Estimated
04:38PM -21.5191 -41.7279 47° Northeast  Level Estimated
04:39PM -21.4728 -41.6742 47° Northeast  Level Estimated
04:40PM -21.4265 -41.6206 47° Northeast  Level Estimated
04:41PM -21.3801 -41.5671 47° Northeast  Level Estimated
04:42PM -21.3337 -41.5135 47° Northeast  Level Estimated
04:43PM -21.2874 -41.4600 47° Northeast  Level Estimated
04:44PM -21.2410 -41.4066 47° Northeast  Level Estimated
04:45PM -21.1945 -41.3532 47° Northeast  Level Estimated
04:46PM -21.1481 -41.2998 47° Northeast  Level Estimated
04:47PM -21.1017 -41.2464 47° Northeast  Level Estimated
04:48PM -21.0552 -41.1931 47° Northeast  Level Estimated
04:49PM -21.0087 -41.1398 47° Northeast  Level Estimated
04:50PM -20.9622 -41.0866 47° Northeast  Level Estimated
04:51PM -20.9157 -41.0333 47° Northeast  Level Estimated
04:52PM -20.8691 -40.9801 47° Northeast  Level Estimated
04:53PM -20.8226 -40.9270 47° Northeast  Level Estimated
04:54PM -20.7760 -40.8739 47° Northeast  Level Estimated
04:55PM -20.7294 -40.8208 47° Northeast  Level Estimated
04:56PM -20.6828 -40.7677 47° Northeast  Level Estimated
04:57PM -20.6362 -40.7147 47° Northeast  Level Estimated
04:58PM -20.5896 -40.6617 47° Northeast  Level Estimated
04:59PM -20.5429 -40.6087 47° Northeast  Level Estimated
05:00PM -20.4963 -40.5558 47° Northeast  Level Estimated
05:01PM -20.4496 -40.5029 47° Northeast  Level Estimated
05:02PM -20.4029 -40.4500 47° Northeast  Level Estimated
05:03PM -20.3561 -40.3972 47° Northeast  Level Estimated
05:04PM -20.3094 -40.3444 47° Northeast  Level Estimated
05:05PM -20.2627 -40.2916 47° Northeast  Level Estimated
05:06PM -20.2581 -40.2864 47° Northeast  Level Estimated
05:07PM -20.2581 -40.2864 13° North  Level Estimated
05:08PM -20.2581 -40.2864 13° North  Level Estimated
05:09PM -20.2581 -40.2864 13° North  Level Estimated
05:10PM -20.2581 -40.2864 13° North  Level Estimated
05:11PM -20.2581 -40.2864 13° North  Level Estimated
05:12PM -20.2581 -40.2864 13° North  Level Estimated
05:13PM -20.2581 -40.2864 13° North  Level Estimated
05:14PM -20.2581 -40.2864 13° North  Level Estimated
05:15PM -20.2581 -40.2864 13° North  Level Estimated
05:16PM -20.2581 -40.2864 13° North  Level Estimated
05:17PM -20.2581 -40.2864 13° North  Level Estimated
05:18PM -20.2581 -40.2864 13° North  Level Estimated
05:19PM -20.2581 -40.2864 13° North  Level Estimated
05:20PM -20.2581 -40.2864 13° North  Level Estimated
05:21PM -20.2581 -40.2864 13° North  Level Estimated